Time;durP1;ratioP1;P1;durP2;ratioP2;P2;SDS_P1;SDS_P2;PMS_P1;PMS_P2;Temp;Humidity;BMP_temperature;BMP_pressure;BME280_temperature;BME280_humidity;BME280_pressure;Samples;Min_cycle;Max_cycle;Signal;HPM_P1;HPM_P2
2023/09/11 00:00:13;;;;;;;31.17;27.95;;;16.20;99.90;;;;;;4967676;28;20115;-72
2023/09/11 00:02:40;;;;;;;36.42;29.13;;;16.10;99.90;;;;;;4957754;28;20070;-73
2023/09/11 00:05:07;;;;;;;41.85;32.05;;;16.00;99.90;;;;;;4953290;28;20049;-72
2023/09/11 00:07:34;;;;;;;44.10;35.63;;;16.10;99.90;;;;;;4966141;28;20042;-74
2023/09/11 00:10:01;;;;;;;45.47;36.08;;;16.20;99.90;;;;;;4944596;28;20042;-74
2023/09/11 00:12:27;;;;;;;53.65;37.90;;;16.10;99.90;;;;;;4979675;28;20300;-73
2023/09/11 00:14:54;;;;;;;51.00;36.15;;;16.10;99.90;;;;;;4952175;28;20039;-73
2023/09/11 00:17:21;;;;;;;46.70;36.67;;;16.20;99.90;;;;;;4958537;28;20049;-73
2023/09/11 00:19:48;;;;;;;45.60;35.28;;;16.10;99.90;;;;;;4962124;28;20313;-74
2023/09/11 00:22:15;;;;;;;45.08;33.35;;;16.00;99.90;;;;;;4969842;28;20055;-73
2023/09/11 00:24:42;;;;;;;54.33;36.47;;;16.10;99.90;;;;;;4954306;28;20039;-71
2023/09/11 00:27:08;;;;;;;45.90;37.53;;;16.00;99.90;;;;;;4960459;28;20050;-72
2023/09/11 00:29:35;;;;;;;49.38;35.40;;;16.20;99.90;;;;;;4962122;28;20463;-73
2023/09/11 00:32:02;;;;;;;46.78;38.35;;;16.20;99.90;;;;;;4953452;28;20053;-71
2023/09/11 00:34:32;;;;;;;47.17;35.63;;;16.20;99.90;;;;;;4981590;28;20114;-73
2023/09/11 00:36:58;;;;;;;55.70;38.63;;;16.30;99.90;;;;;;4959521;28;20038;-71
2023/09/11 00:39:25;;;;;;;55.30;37.30;;;16.30;99.90;;;;;;4946423;28;20055;-74
2023/09/11 00:41:52;;;;;;;51.22;37.90;;;16.30;99.90;;;;;;4980448;28;20053;-73
2023/09/11 00:44:19;;;;;;;50.65;37.88;;;16.30;99.90;;;;;;4976899;28;20060;-72
2023/09/11 00:46:46;;;;;;;49.15;38.10;;;16.40;99.90;;;;;;4974928;28;20550;-73
2023/09/11 00:49:13;;;;;;;45.67;33.38;;;16.20;99.90;;;;;;4973085;28;20037;-71
2023/09/11 00:51:39;;;;;;;40.60;33.38;;;16.10;99.90;;;;;;4958587;28;20137;-73
2023/09/11 00:54:08;;;;;;;36.72;32.78;;;16.00;99.90;;;;;;4945882;28;20124;-73
2023/09/11 00:56:35;;;;;;;34.03;30.27;;;15.80;99.90;;;;;;4979998;28;20101;-73
2023/09/11 00:59:03;;;;;;;40.83;31.13;;;15.80;99.90;;;;;;4970852;28;20053;-72
2023/09/11 01:01:30;;;;;;;33.70;29.65;;;15.90;99.90;;;;;;4952494;28;20068;-73
2023/09/11 01:03:58;;;;;;;34.70;31.20;;;16.00;99.90;;;;;;5035072;28;20694;-73
2023/09/11 01:06:25;;;;;;;36.88;33.00;;;16.00;99.90;;;;;;4960693;28;20047;-72
2023/09/11 01:08:55;;;;;;;37.55;33.10;;;15.90;99.90;;;;;;4951230;28;20069;-72
2023/09/11 01:11:22;;;;;;;46.50;34.42;;;15.80;99.90;;;;;;4965686;28;20126;-73
2023/09/11 01:13:49;;;;;;;36.53;32.78;;;15.70;99.90;;;;;;4982004;28;20047;-72
2023/09/11 01:16:35;;;;;;;38.03;34.05;;;15.70;99.90;;;;;;4938896;28;20652;-71
2023/09/11 01:19:33;;;;;;;42.30;32.55;;;15.70;99.90;;;;;;4975185;28;20138;-72
2023/09/11 01:22:24;;;;;;;39.90;34.55;;;15.70;99.90;;;;;;4970691;28;20168;-72
2023/09/11 01:25:25;;;;;;;47.65;35.25;;;15.60;99.90;;;;;;4972783;28;20054;-73
2023/09/11 01:28:23;;;;;;;51.88;39.30;;;15.50;99.90;;;;;;4968341;28;20483;-72
2023/09/11 01:30:50;;;;;;;45.38;36.45;;;15.60;99.90;;;;;;4978977;28;20111;-72
2023/09/11 01:33:17;;;;;;;43.00;34.88;;;15.60;99.90;;;;;;4955386;28;20584;-72
2023/09/11 01:35:44;;;;;;;43.47;36.35;;;15.70;99.90;;;;;;4983330;28;20779;-72
2023/09/11 01:38:11;;;;;;;52.03;40.50;;;15.60;99.90;;;;;;4966539;28;20047;-72
2023/09/11 01:40:41;;;;;;;46.50;38.20;;;15.80;99.90;;;;;;4975337;28;20057;-72
2023/09/11 01:43:11;;;;;;;49.88;37.03;;;15.70;99.90;;;;;;4968026;28;20479;-72
2023/09/11 01:45:40;;;;;;;46.75;38.45;;;15.70;99.90;;;;;;4964239;28;20058;-72
2023/09/11 01:48:08;;;;;;;49.60;35.63;;;15.70;99.90;;;;;;4971522;28;20050;-72
2023/09/11 01:50:40;;;;;;;39.63;33.50;;;15.70;99.90;;;;;;4981479;28;20092;-73
2023/09/11 01:53:07;;;;;;;38.33;31.38;;;15.60;99.90;;;;;;4976854;28;20047;-72
2023/09/11 01:55:35;;;;;;;39.85;32.85;;;15.60;99.90;;;;;;4979694;28;20046;-72
2023/09/11 01:58:01;;;;;;;36.05;32.38;;;15.60;99.90;;;;;;5037252;28;20046;-73
2023/09/11 02:00:28;;;;;;;36.25;32.15;;;15.50;99.90;;;;;;4982686;28;20584;-72
2023/09/11 02:02:55;;;;;;;35.30;31.42;;;15.50;99.90;;;;;;4975979;28;20089;-72
2023/09/11 02:05:22;;;;;;;36.25;32.35;;;15.40;99.90;;;;;;4942513;28;20075;-71
2023/09/11 02:07:49;;;;;;;37.38;30.70;;;15.40;99.90;;;;;;4976379;28;20056;-72
2023/09/11 02:10:17;;;;;;;35.83;30.85;;;15.30;99.90;;;;;;4972470;28;20054;-73
2023/09/11 02:12:44;;;;;;;32.72;29.23;;;15.20;99.90;;;;;;4973931;28;20053;-72
2023/09/11 02:15:11;;;;;;;33.35;29.92;;;15.20;99.90;;;;;;4960679;28;20058;-72
2023/09/11 02:17:38;;;;;;;33.92;30.45;;;15.10;99.90;;;;;;4970752;28;20036;-72
2023/09/11 02:20:06;;;;;;;39.05;31.10;;;15.20;99.90;;;;;;4977438;28;20530;-73
2023/09/11 02:22:33;;;;;;;35.03;31.40;;;15.10;99.90;;;;;;5026027;28;20142;-72
2023/09/11 02:25:00;;;;;;;36.00;32.08;;;15.10;99.90;;;;;;4977554;28;20144;-73
2023/09/11 02:27:27;;;;;;;37.30;33.47;;;15.10;99.90;;;;;;4972552;28;20069;-72
2023/09/11 02:29:53;;;;;;;38.83;34.88;;;15.30;99.90;;;;;;4972624;28;20034;-72
2023/09/11 02:32:20;;;;;;;48.63;37.80;;;15.30;99.90;;;;;;4966468;28;20137;-72
2023/09/11 02:34:47;;;;;;;49.50;40.97;;;15.30;99.90;;;;;;5042702;28;20759;-72
2023/09/11 02:37:18;;;;;;;53.85;42.75;;;15.30;99.90;;;;;;4953813;28;20116;-71
2023/09/11 02:39:46;;;;;;;54.47;43.97;;;15.50;99.90;;;;;;4945602;28;20042;-72
2023/09/11 02:42:12;;;;;;;61.33;45.58;;;15.60;99.90;;;;;;4968553;28;20385;-72
2023/09/11 02:44:39;;;;;;;59.72;47.00;;;15.60;99.90;;;;;;4984369;28;20050;-71
2023/09/11 02:47:06;;;;;;;62.58;42.58;;;15.40;99.90;;;;;;4950025;28;20042;-72
2023/09/11 02:49:33;;;;;;;53.35;40.63;;;15.40;99.90;;;;;;4958459;28;20054;-72
2023/09/11 02:52:00;;;;;;;48.92;39.50;;;15.30;99.90;;;;;;4961859;28;20557;-72
2023/09/11 02:54:27;;;;;;;49.17;38.45;;;15.20;99.90;;;;;;4977640;28;20077;-73
2023/09/11 02:56:54;;;;;;;40.22;35.97;;;15.20;99.90;;;;;;4958257;28;20038;-73
2023/09/11 02:59:20;;;;;;;44.17;36.28;;;15.10;99.90;;;;;;4960193;28;20065;-72
2023/09/11 03:01:47;;;;;;;43.03;36.28;;;15.10;99.90;;;;;;4966997;28;20046;-72
2023/09/11 03:04:14;;;;;;;42.47;37.53;;;15.10;99.90;;;;;;4980654;28;20043;-71
2023/09/11 03:06:41;;;;;;;41.83;35.70;;;15.00;99.90;;;;;;4963806;28;20062;-72
2023/09/11 03:09:08;;;;;;;42.80;37.85;;;15.30;99.90;;;;;;4955025;28;20043;-72
2023/09/11 03:11:35;;;;;;;50.05;38.83;;;15.20;99.90;;;;;;4958893;28;20759;-72
2023/09/11 03:14:02;;;;;;;49.67;40.95;;;15.30;99.90;;;;;;4974210;28;20026;-72
2023/09/11 03:16:29;;;;;;;58.80;42.08;;;15.30;99.90;;;;;;4955598;28;20042;-72
2023/09/11 03:18:57;;;;;;;51.58;42.40;;;15.20;99.90;;;;;;4959540;28;20296;-72
2023/09/11 03:21:24;;;;;;;52.10;42.03;;;15.20;99.90;;;;;;4958461;28;20072;-72
2023/09/11 03:23:51;;;;;;;53.08;41.92;;;15.10;99.90;;;;;;4961201;28;20099;-72
2023/09/11 03:26:18;;;;;;;60.05;44.05;;;15.10;99.90;;;;;;4973330;28;20145;-71
2023/09/11 03:28:52;;;;;;;56.38;44.28;;;15.10;99.90;;;;;;4961037;28;20042;-72
2023/09/11 03:31:23;;;;;;;56.10;44.58;;;15.30;99.90;;;;;;4958570;28;20057;-72
2023/09/11 03:33:50;;;;;;;51.58;43.50;;;15.40;99.90;;;;;;4961728;28;20053;-72
2023/09/11 03:36:18;;;;;;;63.67;42.90;;;15.30;99.90;;;;;;4961678;28;20556;-71
2023/09/11 03:38:45;;;;;;;57.90;43.72;;;15.40;99.90;;;;;;4974488;28;20039;-72
2023/09/11 03:41:12;;;;;;;54.70;43.15;;;15.40;99.90;;;;;;4968011;28;20107;-73
2023/09/11 03:43:39;;;;;;;51.13;41.50;;;15.30;99.90;;;;;;4976279;28;20043;-72
2023/09/11 03:46:06;;;;;;;48.58;37.75;;;15.20;99.90;;;;;;4953493;28;20161;-72
2023/09/11 03:48:34;;;;;;;47.75;39.03;;;15.10;99.90;;;;;;4953637;28;20916;-73
2023/09/11 03:51:02;;;;;;;47.78;37.88;;;15.10;99.90;;;;;;4974122;28;20073;-72
2023/09/11 03:53:28;;;;;;;55.42;41.97;;;15.00;99.90;;;;;;4956806;28;20055;-72
2023/09/11 03:55:56;;;;;;;62.13;44.78;;;15.00;99.90;;;;;;4944368;28;20054;-73
2023/09/11 03:58:22;;;;;;;57.88;42.72;;;15.10;99.90;;;;;;4941936;28;20061;-72
2023/09/11 04:00:49;;;;;;;63.63;44.88;;;15.00;99.90;;;;;;4964646;28;20077;-73
2023/09/11 04:03:17;;;;;;;50.13;41.70;;;15.00;99.90;;;;;;4964535;28;20066;-72
2023/09/11 04:05:44;;;;;;;53.70;43.20;;;15.00;99.90;;;;;;5040749;28;20052;-72
2023/09/11 04:08:11;;;;;;;54.05;42.03;;;15.20;99.90;;;;;;4957460;28;20054;-72
2023/09/11 04:10:37;;;;;;;52.03;43.83;;;15.00;99.90;;;;;;4935449;28;20048;-72
2023/09/11 04:13:04;;;;;;;58.60;44.70;;;15.10;99.90;;;;;;4965698;28;20050;-72
2023/09/11 04:15:31;;;;;;;63.05;43.13;;;15.00;99.90;;;;;;4976487;28;20106;-72
2023/09/11 04:17:58;;;;;;;46.55;40.25;;;14.90;99.90;;;;;;4982352;28;20057;-71
2023/09/11 04:20:26;;;;;;;40.50;36.15;;;14.80;99.90;;;;;;4955174;28;20046;-72
2023/09/11 04:22:53;;;;;;;46.63;38.50;;;14.80;99.90;;;;;;4967246;28;20137;-72
2023/09/11 04:25:19;;;;;;;54.72;42.70;;;14.80;99.90;;;;;;4960031;28;20050;-71
2023/09/11 04:27:52;;;;;;;54.55;43.38;;;14.80;99.90;;;;;;4940459;28;20058;-72
2023/09/11 04:30:19;;;;;;;58.97;44.22;;;14.80;99.90;;;;;;4963602;28;20096;-71
2023/09/11 04:32:47;;;;;;;57.55;41.85;;;14.70;99.90;;;;;;4985577;28;20042;-71
2023/09/11 04:35:14;;;;;;;51.97;41.42;;;14.80;99.90;;;;;;4966464;28;20070;-72
2023/09/11 04:37:41;;;;;;;45.78;38.03;;;14.70;99.90;;;;;;4964660;28;20050;-72
2023/09/11 04:40:09;;;;;;;54.90;40.13;;;14.50;99.90;;;;;;4956386;28;20054;-72
2023/09/11 04:42:36;;;;;;;51.75;40.50;;;14.60;99.90;;;;;;4957828;28;20050;-72
2023/09/11 04:45:04;;;;;;;57.55;41.40;;;14.60;99.90;;;;;;4956292;28;20042;-72
2023/09/11 04:47:31;;;;;;;55.13;43.80;;;14.60;99.90;;;;;;4957111;28;20086;-72
2023/09/11 04:50:00;;;;;;;54.58;44.15;;;14.60;99.90;;;;;;4960217;28;20047;-72
2023/09/11 04:52:26;;;;;;;47.10;39.92;;;14.50;99.90;;;;;;4963540;28;20547;-72
2023/09/11 04:54:53;;;;;;;43.00;35.35;;;14.50;99.90;;;;;;4941027;28;20570;-72
2023/09/11 04:57:20;;;;;;;52.72;36.70;;;14.70;99.90;;;;;;4961980;28;20056;-72
2023/09/11 04:59:47;;;;;;;40.83;36.15;;;14.60;99.90;;;;;;4989630;28;20507;-72
2023/09/11 05:02:14;;;;;;;57.17;38.42;;;14.60;99.90;;;;;;4961707;28;20073;-72
2023/09/11 05:04:42;;;;;;;53.70;37.05;;;14.50;99.90;;;;;;4951865;28;20050;-72
2023/09/11 05:07:08;;;;;;;50.67;38.55;;;14.40;99.90;;;;;;4984297;28;20040;-72
2023/09/11 05:09:35;;;;;;;42.08;36.90;;;14.50;99.90;;;;;;4950175;28;20046;-72
2023/09/11 05:12:02;;;;;;;42.53;35.50;;;14.40;99.90;;;;;;4945224;28;20530;-72
2023/09/11 05:14:29;;;;;;;47.38;37.97;;;14.40;99.90;;;;;;4973680;28;20083;-72
2023/09/11 05:16:56;;;;;;;42.03;36.53;;;14.30;99.90;;;;;;4960326;28;20034;-72
2023/09/11 05:19:25;;;;;;;40.05;35.00;;;14.30;99.90;;;;;;4956386;28;20207;-71
2023/09/11 05:21:54;;;;;;;40.95;33.83;;;14.40;99.90;;;;;;4969671;28;20045;-72
2023/09/11 05:24:21;;;;;;;42.80;34.42;;;14.30;99.90;;;;;;4972212;28;20050;-71
2023/09/11 05:26:48;;;;;;;40.85;32.75;;;14.40;99.90;;;;;;4974255;28;20047;-73
2023/09/11 05:29:15;;;;;;;35.58;31.88;;;14.40;99.90;;;;;;4961105;28;20046;-72
2023/09/11 05:31:41;;;;;;;43.03;33.28;;;14.30;99.90;;;;;;4969478;28;20038;-72
2023/09/11 05:34:08;;;;;;;40.03;34.53;;;14.30;99.90;;;;;;4964999;28;20126;-71
2023/09/11 05:36:35;;;;;;;39.58;33.17;;;14.30;99.90;;;;;;4965634;28;20090;-71
2023/09/11 05:39:02;;;;;;;41.08;34.20;;;14.40;99.90;;;;;;4979668;28;20070;-71
2023/09/11 05:41:30;;;;;;;47.95;36.00;;;14.40;99.90;;;;;;4978865;28;20657;-71
2023/09/11 05:43:57;;;;;;;41.55;34.15;;;14.50;99.90;;;;;;4976265;28;20042;-72
2023/09/11 05:46:24;;;;;;;45.70;34.33;;;14.60;99.90;;;;;;4978035;28;20043;-71
2023/09/11 05:48:51;;;;;;;50.70;35.53;;;14.70;99.90;;;;;;4983903;28;20051;-71
2023/09/11 05:51:18;;;;;;;39.90;33.78;;;14.70;99.90;;;;;;4961624;28;20042;-71
2023/09/11 05:53:45;;;;;;;40.55;33.50;;;14.70;99.90;;;;;;4989197;28;23109;-71
2023/09/11 05:56:12;;;;;;;44.08;32.83;;;14.70;99.90;;;;;;4982410;28;20094;-72
2023/09/11 05:58:38;;;;;;;37.28;33.42;;;14.70;99.90;;;;;;4972696;28;20062;-71
2023/09/11 06:01:06;;;;;;;42.47;33.60;;;14.80;99.90;;;;;;4977615;28;20042;-72
2023/09/11 06:03:33;;;;;;;35.55;31.98;;;14.90;99.90;;;;;;4957474;28;20072;-71
2023/09/11 06:06:00;;;;;;;46.05;34.60;;;15.00;99.90;;;;;;4983098;28;20377;-73
2023/09/11 06:08:27;;;;;;;42.65;33.35;;;15.00;99.90;;;;;;4968293;28;20054;-71
2023/09/11 06:10:54;;;;;;;36.08;30.98;;;15.10;99.90;;;;;;4985883;28;20534;-73
2023/09/11 06:13:20;;;;;;;41.97;31.65;;;15.30;99.90;;;;;;4977149;28;20329;-72
2023/09/11 06:15:47;;;;;;;45.88;32.92;;;15.40;99.90;;;;;;4976164;28;20070;-73
2023/09/11 06:18:14;;;;;;;47.15;32.45;;;15.60;99.90;;;;;;4949792;28;20042;-73
2023/09/11 06:20:41;;;;;;;48.05;30.90;;;15.60;99.90;;;;;;4959160;28;20069;-72
2023/09/11 06:23:10;;;;;;;42.33;29.23;;;16.00;99.90;;;;;;4958386;28;20679;-71
2023/09/11 06:25:37;;;;;;;41.35;27.77;;;16.10;99.90;;;;;;4955336;28;20046;-72
2023/09/11 06:28:04;;;;;;;36.53;26.63;;;16.30;99.90;;;;;;4945029;28;20430;-72
2023/09/11 06:30:34;;;;;;;39.35;27.80;;;16.40;99.90;;;;;;4965507;28;20533;-73
2023/09/11 06:33:01;;;;;;;43.10;28.40;;;16.40;99.90;;;;;;4985864;28;20092;-73
2023/09/11 06:35:28;;;;;;;37.67;28.30;;;16.60;99.90;;;;;;4975609;28;20165;-73
2023/09/11 06:37:55;;;;;;;48.60;30.63;;;16.70;99.90;;;;;;5039770;28;20050;-72
2023/09/11 06:40:22;;;;;;;41.78;29.65;;;16.80;99.90;;;;;;4957178;28;20095;-72
2023/09/11 06:42:49;;;;;;;42.15;29.40;;;17.00;99.90;;;;;;4954060;28;20209;-72
2023/09/11 06:45:16;;;;;;;49.63;30.10;;;17.00;99.90;;;;;;4975381;28;20112;-72
2023/09/11 06:47:44;;;;;;;40.13;30.15;;;17.20;99.90;;;;;;4973546;28;20058;-73
2023/09/11 06:50:11;;;;;;;42.95;27.92;;;17.30;99.90;;;;;;4964931;28;20046;-72
2023/09/11 06:52:40;;;;;;;39.88;27.48;;;17.30;99.90;;;;;;4956044;28;20057;-73
2023/09/11 06:55:08;;;;;;;36.22;27.85;;;17.50;99.90;;;;;;4975551;28;20050;-73
2023/09/11 06:57:35;;;;;;;41.30;27.17;;;17.60;99.90;;;;;;4973232;28;20064;-72
2023/09/11 07:00:10;;;;;;;36.53;27.10;;;17.80;99.90;;;;;;4956311;28;20069;-72
2023/09/11 07:02:46;;;;;;;39.58;26.33;;;17.90;99.90;;;;;;4959424;28;20057;-73
2023/09/11 07:05:13;;;;;;;43.40;27.30;;;18.00;99.90;;;;;;4977724;28;20155;-72
2023/09/11 07:07:40;;;;;;;43.15;26.52;;;18.10;99.90;;;;;;4980250;28;20687;-75
2023/09/11 07:10:17;;;;;;;41.95;26.88;;;18.30;99.90;;;;;;4975680;28;20066;-75
2023/09/11 07:13:00;;;;;;;36.30;25.70;;;18.50;99.90;;;;;;4967310;28;20133;-77
2023/09/11 07:15:26;;;;;;;37.55;24.48;;;18.90;99.90;;;;;;4975751;28;20474;-76
2023/09/11 07:17:53;;;;;;;35.05;23.02;;;19.10;99.90;;;;;;4975904;28;20050;-77
2023/09/11 07:20:21;;;;;;;27.58;22.95;;;19.50;99.90;;;;;;4964578;28;20034;-74
2023/09/11 07:22:49;;;;;;;31.30;24.60;;;19.90;99.90;;;;;;4970372;28;20050;-74
2023/09/11 07:25:17;;;;;;;32.58;25.77;;;20.40;99.90;;;;;;4982993;28;20141;-74
2023/09/11 07:27:43;;;;;;;27.35;23.25;;;20.80;99.90;;;;;;4952905;28;20053;-74
2023/09/11 07:30:10;;;;;;;30.67;24.23;;;21.20;99.90;;;;;;4940006;28;20047;-74
2023/09/11 07:32:38;;;;;;;32.00;25.52;;;21.70;99.90;;;;;;5022112;28;20046;-75
2023/09/11 07:35:05;;;;;;;29.75;26.63;;;22.20;99.90;;;;;;4978531;28;20050;-75
2023/09/11 07:37:32;;;;;;;40.22;25.83;;;22.90;99.90;;;;;;4975221;28;20088;-74
2023/09/11 07:39:59;;;;;;;34.85;27.60;;;23.30;99.90;;;;;;4966331;28;20053;-73
2023/09/11 07:42:25;;;;;;;39.45;27.33;;;23.80;99.90;;;;;;4970172;28;20043;-73
2023/09/11 07:44:52;;;;;;;29.77;26.75;;;24.10;99.90;;;;;;4956667;28;20043;-74
2023/09/11 07:47:19;;;;;;;30.45;27.27;;;24.50;99.90;;;;;;4956924;28;20504;-74
2023/09/11 07:49:46;;;;;;;30.42;27.38;;;24.80;99.90;;;;;;4962554;28;20185;-74
2023/09/11 07:52:15;;;;;;;31.85;28.45;;;25.00;99.90;;;;;;4981371;28;20050;-74
2023/09/11 07:54:42;;;;;;;33.80;27.90;;;25.30;99.90;;;;;;4967949;28;20041;-74
2023/09/11 07:57:09;;;;;;;31.95;28.63;;;25.50;99.90;;;;;;4972430;28;20503;-74
2023/09/11 07:59:35;;;;;;;34.85;28.85;;;25.70;99.90;;;;;;4957668;28;20078;-74
2023/09/11 08:02:02;;;;;;;31.23;27.17;;;25.90;99.90;;;;;;4973665;28;20373;-73
2023/09/11 08:04:29;;;;;;;33.22;28.92;;;26.00;99.90;;;;;;4959427;28;20096;-73
2023/09/11 08:06:56;;;;;;;31.08;28.08;;;26.10;99.90;;;;;;4957090;28;20035;-74
2023/09/11 08:09:23;;;;;;;31.42;28.23;;;25.90;99.90;;;;;;4966558;28;20133;-73
2023/09/11 08:11:50;;;;;;;34.10;30.65;;;25.80;99.90;;;;;;4975932;28;20149;-73
2023/09/11 08:14:17;;;;;;;33.05;29.55;;;26.10;99.90;;;;;;4960500;28;20535;-74
2023/09/11 08:16:43;;;;;;;36.03;29.75;;;26.70;99.90;;;;;;4965002;28;20066;-74
2023/09/11 08:19:12;;;;;;;32.85;29.58;;;27.00;99.90;;;;;;4972548;28;20050;-74
2023/09/11 08:21:40;;;;;;;33.67;30.00;;;27.30;99.90;;;;;;4957121;28;20115;-74
2023/09/11 08:24:07;;;;;;;36.58;32.33;;;27.30;99.90;;;;;;4972882;28;20511;-74
2023/09/11 08:26:34;;;;;;;35.55;32.15;;;27.60;99.90;;;;;;4966194;28;20102;-74
2023/09/11 08:29:02;;;;;;;35.75;32.00;;;27.90;99.90;;;;;;4968391;28;21047;-74
2023/09/11 08:31:29;;;;;;;36.22;32.60;;;28.00;99.90;;;;;;4969449;28;20047;-73
2023/09/11 08:33:56;;;;;;;35.97;32.58;;;28.30;99.90;;;;;;4970977;28;20074;-73
2023/09/11 08:36:24;;;;;;;36.38;32.95;;;28.50;99.90;;;;;;4977800;28;20058;-74
2023/09/11 08:38:50;;;;;;;36.75;33.65;;;28.80;99.90;;;;;;4975912;28;20050;-73
2023/09/11 08:41:19;;;;;;;37.90;34.33;;;28.90;99.90;;;;;;4959132;28;20512;-74
2023/09/11 08:43:46;;;;;;;39.97;36.10;;;29.20;99.90;;;;;;4968973;28;20525;-78
2023/09/11 08:46:17;;;;;;;38.05;34.08;;;29.50;99.90;;;;;;4972176;28;20050;-76
2023/09/11 08:48:46;;;;;;;37.95;33.55;;;29.50;99.90;;;;;;4953345;28;20052;-76
2023/09/11 08:51:28;;;;;;;38.85;35.35;;;29.40;99.90;;;;;;4958581;28;20084;-76
2023/09/11 08:53:58;;;;;;;39.55;35.60;;;29.20;99.90;;;;;;4952365;28;20052;-75
2023/09/11 08:56:25;;;;;;;39.33;35.67;;;29.30;99.90;;;;;;4958040;28;20050;-74
2023/09/11 08:58:53;;;;;;;38.10;34.67;;;29.20;99.90;;;;;;4951314;28;20507;-79
2023/09/11 09:01:21;;;;;;;39.83;35.75;;;29.10;99.90;;;;;;4973578;28;20045;-75
2023/09/11 09:03:51;;;;;;;39.63;35.88;;;28.80;99.90;;;;;;4972447;28;20442;-77
2023/09/11 09:06:19;;;;;;;38.00;35.00;;;28.80;99.90;;;;;;4978455;28;20057;-76
2023/09/11 09:08:46;;;;;;;39.45;35.00;;;28.70;99.90;;;;;;4950732;28;20053;-78
2023/09/11 09:11:14;;;;;;;40.00;36.33;;;28.80;99.90;;;;;;4980796;28;20038;-75
2023/09/11 09:13:41;;;;;;;37.92;34.17;;;29.30;99.90;;;;;;4980153;28;20035;-75
2023/09/11 09:16:08;;;;;;;39.45;36.05;;;29.20;99.90;;;;;;4969704;28;20642;-76
2023/09/11 09:18:35;;;;;;;39.50;36.05;;;29.20;99.90;;;;;;4969956;28;20451;-76
2023/09/11 09:21:04;;;;;;;37.33;34.35;;;29.40;99.90;;;;;;4946621;28;20049;-77
2023/09/11 09:23:33;;;;;;;42.15;38.17;;;29.60;99.90;;;;;;4954530;28;20177;-75
2023/09/11 09:26:05;;;;;;;40.20;36.60;;;29.80;99.90;;;;;;4952025;28;20070;-76
2023/09/11 09:28:33;;;;;;;39.88;36.55;;;29.80;99.90;;;;;;4954016;28;20145;-75
2023/09/11 09:31:03;;;;;;;39.40;35.90;;;29.80;99.90;;;;;;4976038;28;20046;-78
2023/09/11 09:33:30;;;;;;;38.63;35.03;;;30.10;99.90;;;;;;4970898;28;20622;-77
2023/09/11 09:35:58;;;;;;;38.95;35.72;;;30.20;99.90;;;;;;4977664;28;20575;-77
2023/09/11 09:38:26;;;;;;;39.30;35.58;;;30.20;99.90;;;;;;4951853;28;20047;-76
2023/09/11 09:40:54;;;;;;;39.90;36.10;;;30.20;99.90;;;;;;4969320;28;20081;-77
2023/09/11 09:43:23;;;;;;;37.00;33.83;;;29.90;99.90;;;;;;4977588;28;20094;-77
2023/09/11 09:45:50;;;;;;;37.30;34.20;;;30.00;99.90;;;;;;4952690;28;20580;-76
2023/09/11 09:48:20;;;;;;;40.72;36.40;;;30.20;99.90;;;;;;4970418;28;20069;-76
2023/09/11 09:50:57;;;;;;;38.50;34.50;;;30.00;99.90;;;;;;4983341;28;20038;-77
2023/09/11 09:53:26;;;;;;;39.47;35.88;;;29.80;99.90;;;;;;4957590;28;20435;-77
2023/09/11 09:55:55;;;;;;;38.47;34.83;;;29.70;99.90;;;;;;4959866;28;20048;-76
2023/09/11 09:58:30;;;;;;;37.88;34.53;;;29.80;99.90;;;;;;5005640;28;20728;-74
2023/09/11 10:01:00;;;;;;;38.80;34.85;;;29.80;99.90;;;;;;4979588;28;20415;-76
2023/09/11 10:03:27;;;;;;;39.80;35.97;;;30.00;99.90;;;;;;4964527;28;20054;-76
2023/09/11 10:05:54;;;;;;;39.33;35.53;;;30.10;99.90;;;;;;4933896;28;20086;-77
2023/09/11 10:08:21;;;;;;;37.17;33.90;;;30.10;99.90;;;;;;4952845;28;20106;-76
2023/09/11 10:10:47;;;;;;;40.20;36.47;;;30.00;99.90;;;;;;4968548;28;20523;-76
2023/09/11 10:13:36;;;;;;;38.72;35.55;;;30.30;99.90;;;;;;4973247;28;20080;-77
2023/09/11 10:16:04;;;;;;;41.60;37.17;;;30.50;99.90;;;;;;4943040;28;20050;-77
2023/09/11 10:18:33;;;;;;;40.17;36.40;;;30.50;99.90;;;;;;4976835;28;20146;-77
2023/09/11 10:21:00;;;;;;;39.22;35.75;;;30.60;99.90;;;;;;4960856;28;20049;-77
2023/09/11 10:23:28;;;;;;;38.13;34.35;;;30.50;99.90;;;;;;4974286;28;20050;-77
2023/09/11 10:26:01;;;;;;;38.38;34.92;;;30.50;99.90;;;;;;4952648;28;20056;-77
2023/09/11 10:28:37;;;;;;;39.40;36.08;;;30.60;99.90;;;;;;5015457;28;20102;-77
2023/09/11 10:31:08;;;;;;;39.83;36.22;;;30.70;99.90;;;;;;4964907;28;20585;-77
2023/09/11 10:33:37;;;;;;;39.88;36.38;;;30.50;99.90;;;;;;4962145;28;20054;-77
2023/09/11 10:36:10;;;;;;;38.80;35.50;;;30.60;99.90;;;;;;4976455;28;20045;-76
2023/09/11 10:38:38;;;;;;;38.85;35.53;;;30.70;99.90;;;;;;4959622;28;20050;-76
2023/09/11 10:41:06;;;;;;;39.10;35.60;;;30.70;99.90;;;;;;4984373;28;20133;-77
2023/09/11 10:43:33;;;;;;;38.13;34.65;;;30.60;99.90;;;;;;4976831;28;20800;-76
2023/09/11 10:46:22;;;;;;;38.15;34.83;;;30.70;99.90;;;;;;4943508;28;20042;-76
2023/09/11 10:48:51;;;;;;;39.88;35.75;;;30.40;99.90;;;;;;4990493;28;20151;-76
2023/09/11 10:51:19;;;;;;;40.22;36.60;;;30.30;99.90;;;;;;4981531;28;20538;-75
2023/09/11 10:53:50;;;;;;;41.83;38.00;;;30.20;99.90;;;;;;4957135;28;20050;-74
2023/09/11 10:56:17;;;;;;;39.67;36.30;;;30.10;99.90;;;;;;4968728;28;20138;-76
2023/09/11 10:58:45;;;;;;;37.10;33.78;;;30.20;99.90;;;;;;4980753;28;21080;-76
2023/09/11 11:01:17;;;;;;;40.38;36.88;;;30.40;99.90;;;;;;4987530;28;20682;-77
2023/09/11 11:03:45;;;;;;;40.03;36.28;;;30.50;99.90;;;;;;4972610;28;20146;-74
2023/09/11 11:06:17;;;;;;;39.65;36.22;;;30.60;99.90;;;;;;5038832;28;20051;-75
2023/09/11 11:08:46;;;;;;;39.50;36.40;;;30.70;99.90;;;;;;4971513;28;20136;-74
2023/09/11 11:11:27;;;;;;;40.45;37.30;;;30.70;99.90;;;;;;4969305;28;20057;-74
2023/09/11 11:14:21;;;;;;;39.67;36.22;;;30.80;99.90;;;;;;4968400;28;20768;-76
2023/09/11 11:17:11;;;;;;;40.38;36.63;;;31.00;99.90;;;;;;4962532;28;20133;-78
2023/09/11 11:19:58;;;;;;;39.95;35.97;;;30.90;99.90;;;;;;4972931;28;20042;-76
2023/09/11 11:22:30;;;;;;;40.40;36.58;;;30.70;99.90;;;;;;4989688;28;20042;-75
2023/09/11 11:24:58;;;;;;;35.70;32.00;;;30.70;99.90;;;;;;4975839;28;20168;-75
2023/09/11 11:27:25;;;;;;;40.35;36.28;;;30.70;99.90;;;;;;4980703;28;20042;-75
2023/09/11 11:29:53;;;;;;;39.88;36.42;;;30.60;99.90;;;;;;4975763;28;20050;-75
2023/09/11 11:32:21;;;;;;;40.97;37.63;;;30.60;99.90;;;;;;5036579;28;20038;-73
2023/09/11 11:34:50;;;;;;;41.67;38.15;;;30.60;99.90;;;;;;4962762;28;20054;-77
2023/09/11 11:37:20;;;;;;;41.58;37.45;;;30.70;99.90;;;;;;4983546;28;20048;-75
2023/09/11 11:39:47;;;;;;;40.08;36.78;;;30.80;99.90;;;;;;4958385;28;20665;-75
2023/09/11 11:42:15;;;;;;;44.65;40.22;;;30.50;99.90;;;;;;4963273;28;20042;-75
2023/09/11 11:44:42;;;;;;;39.78;36.30;;;30.50;99.90;;;;;;4975054;28;20042;-73
2023/09/11 11:47:09;;;;;;;40.53;37.25;;;30.60;99.90;;;;;;4972860;28;20046;-74
2023/09/11 11:49:36;;;;;;;41.58;37.72;;;30.90;99.90;;;;;;4956125;28;20091;-75
2023/09/11 11:52:04;;;;;;;40.63;36.97;;;30.60;99.90;;;;;;4950029;28;20047;-74
2023/09/11 11:54:33;;;;;;;41.35;37.88;;;30.80;99.90;;;;;;4972827;28;20045;-74
2023/09/11 11:57:01;;;;;;;40.35;36.90;;;30.60;99.90;;;;;;4970238;28;20046;-75
2023/09/11 11:59:30;;;;;;;42.15;38.65;;;30.60;99.90;;;;;;4968394;28;20048;-74
2023/09/11 12:01:57;;;;;;;42.45;38.33;;;30.70;99.90;;;;;;4961658;28;20539;-75
2023/09/11 12:04:25;;;;;;;42.10;38.55;;;30.80;99.90;;;;;;4952631;28;20050;-75
2023/09/11 12:07:12;;;;;;;40.28;36.80;;;30.80;99.90;;;;;;4957359;28;20485;-75
2023/09/11 12:09:42;;;;;;;40.97;36.95;;;30.80;99.90;;;;;;4957023;28;20046;-74
2023/09/11 12:12:09;;;;;;;41.05;37.53;;;30.90;99.90;;;;;;4971498;28;20463;-75
2023/09/11 12:14:36;;;;;;;40.90;37.50;;;31.10;99.90;;;;;;4970152;28;20184;-75
2023/09/11 12:17:10;;;;;;;42.83;38.88;;;31.10;99.90;;;;;;4954771;28;20042;-75
2023/09/11 12:19:37;;;;;;;41.97;38.53;;;31.30;99.90;;;;;;4954423;28;20487;-76
2023/09/11 12:22:10;;;;;;;41.05;37.35;;;31.30;99.90;;;;;;4939730;28;20084;-78
2023/09/11 12:24:37;;;;;;;41.72;38.33;;;31.20;99.90;;;;;;4956136;28;20612;-76
2023/09/11 12:27:07;;;;;;;42.55;38.60;;;31.10;99.90;;;;;;4955902;28;20042;-75
2023/09/11 12:29:35;;;;;;;42.50;39.25;;;31.30;99.90;;;;;;4960073;28;20755;-75
2023/09/11 12:32:02;;;;;;;44.03;39.67;;;31.40;99.90;;;;;;4969541;28;20165;-75
2023/09/11 12:34:43;;;;;;;42.47;38.33;;;31.40;99.90;;;;;;4973071;28;20199;-75